createdAt,value
2018-07-31T00:00:14.189Z,76.30
2018-07-31T00:01:14.202Z,76.55
2018-07-31T00:02:14.262Z,76.93
2018-07-31T00:03:14.271Z,77.33
2018-07-31T00:04:14.281Z,77.90
2018-07-31T00:05:14.303Z,78.00
2018-07-31T00:06:14.322Z,78.00
2018-07-31T00:07:14.339Z,77.90
2018-07-31T00:08:14.362Z,77.90
2018-07-31T00:09:14.384Z,77.42
2018-07-31T00:10:14.409Z,77.33
2018-07-31T00:11:14.442Z,75.62
2018-07-31T00:12:14.478Z,75.37
2018-07-31T00:13:14.471Z,74.89
2018-07-31T00:14:14.495Z,74.79
2018-07-31T00:15:14.528Z,73.93
2018-07-31T00:16:14.545Z,74.31
2018-07-31T00:17:14.559Z,74.79
2018-07-31T00:18:14.590Z,74.60
2018-07-31T00:19:14.604Z,75.62
2018-07-31T00:20:14.651Z,75.72
2018-07-31T00:21:14.651Z,75.88
2018-07-31T00:22:14.683Z,76.36
2018-07-31T00:23:14.698Z,76.75
2018-07-31T00:24:14.722Z,76.84
2018-07-31T00:25:14.758Z,76.93
2018-07-31T00:26:14.767Z,77.48
2018-07-31T00:27:14.783Z,78.34
2018-07-31T00:28:14.813Z,78.92
2018-07-31T00:29:14.850Z,78.92
2018-07-31T00:30:14.856Z,79.11
2018-07-31T00:31:14.871Z,79.11
2018-07-31T00:32:14.904Z,79.41
2018-07-31T00:33:14.941Z,79.21
2018-07-31T00:34:14.956Z,79.31
2018-07-31T00:35:14.971Z,79.11
2018-07-31T00:36:14.989Z,78.73
2018-07-31T00:37:15.029Z,78.83
2018-07-31T00:38:15.033Z,78.83
2018-07-31T00:39:15.052Z,77.51
2018-07-31T00:40:15.086Z,77.03
2018-07-31T00:41:15.101Z,77.03
2018-07-31T00:42:15.127Z,76.84
2018-07-31T00:43:15.142Z,76.26
2018-07-31T00:44:15.162Z,76.10
2018-07-31T00:45:15.183Z,76.55
2018-07-31T00:46:15.220Z,76.55
2018-07-31T00:47:15.242Z,77.03
2018-07-31T00:48:15.254Z,76.84
2018-07-31T00:49:15.284Z,77.23
2018-07-31T00:50:15.299Z,77.48
2018-07-31T00:51:15.323Z,78.25
2018-07-31T00:52:15.348Z,78.83
2018-07-31T00:53:15.366Z,78.92
2018-07-31T00:54:15.388Z,77.81
2018-07-31T00:55:15.414Z,76.26
2018-07-31T00:56:15.428Z,76.65
2018-07-31T00:57:15.459Z,75.49
2018-07-31T00:58:15.477Z,75.43
2018-07-31T00:59:15.499Z,75.53
2018-07-31T01:00:15.519Z,76.17
2018-07-31T01:01:15.568Z,75.88
2018-07-31T01:02:15.577Z,75.49
2018-07-31T01:03:15.608Z,76.07
2018-07-31T01:04:15.604Z,75.68
2018-07-31T01:05:15.627Z,76.07
2018-07-31T01:06:15.656Z,76.75
2018-07-31T01:07:15.671Z,77.51
2018-07-31T01:08:15.725Z,77.86
2018-07-31T01:09:15.721Z,78.15
2018-07-31T01:10:15.764Z,78.25
2018-07-31T01:11:15.759Z,79.21
2018-07-31T01:12:15.804Z,79.02
2018-07-31T01:13:15.822Z,78.83
2018-07-31T01:14:15.835Z,78.92
2018-07-31T01:15:15.855Z,77.86
2018-07-31T01:16:15.894Z,78.92
2018-07-31T01:17:15.899Z,78.63
2018-07-31T01:18:15.915Z,78.63
2018-07-31T01:19:15.949Z,78.83
2018-07-31T01:20:15.963Z,79.08
2018-07-31T01:21:15.991Z,79.50
2018-07-31T01:22:16.011Z,78.63
2018-07-31T01:23:16.025Z,78.73
2018-07-31T01:24:16.050Z,77.58
2018-07-31T01:25:16.091Z,77.13
2018-07-31T01:26:16.094Z,76.36
2018-07-31T01:27:16.112Z,76.07
2018-07-31T01:28:16.136Z,75.97
2018-07-31T01:29:16.159Z,76.80
2018-07-31T01:30:16.196Z,76.55
2018-07-31T01:31:16.222Z,76.55
2018-07-31T01:32:16.242Z,75.97
2018-07-31T01:33:16.257Z,75.68
2018-07-31T01:34:16.278Z,75.49
2018-07-31T01:35:16.291Z,74.76
2018-07-31T01:36:16.310Z,75.34
2018-07-31T01:37:16.337Z,74.95
2018-07-31T01:38:16.356Z,74.85
2018-07-31T01:39:16.381Z,74.85
2018-07-31T01:40:16.397Z,75.68
2018-07-31T01:41:16.431Z,74.91
2018-07-31T01:42:16.444Z,74.72
2018-07-31T01:43:16.465Z,75.59
2018-07-31T01:44:16.497Z,75.59
2018-07-31T01:45:16.514Z,75.59
2018-07-31T01:46:16.536Z,76.23
2018-07-31T01:47:16.552Z,78.31
2018-07-31T01:48:16.580Z,79.36
2018-07-31T01:49:16.608Z,80.00
2018-07-31T01:50:16.632Z,80.29
2018-07-31T01:51:16.654Z,80.10
2018-07-31T01:52:16.670Z,79.85
2018-07-31T01:53:16.687Z,79.08
2018-07-31T01:54:16.713Z,80.58
2018-07-31T01:55:16.738Z,79.56
2018-07-31T01:56:16.766Z,79.36
2018-07-31T01:57:16.778Z,78.98
2018-07-31T01:58:16.798Z,78.59
2018-07-31T01:59:16.814Z,79.08
2018-07-31T02:00:16.849Z,79.27
2018-07-31T02:01:16.862Z,78.69
2018-07-31T02:02:16.886Z,78.59
2018-07-31T02:03:16.909Z,79.71
2018-07-31T02:04:16.931Z,79.56
2018-07-31T02:05:16.952Z,80.29
2018-07-31T02:06:17.001Z,80.38
2018-07-31T02:07:17.003Z,80.58
2018-07-31T02:08:17.019Z,81.02
2018-07-31T02:09:17.045Z,81.79
2018-07-31T02:10:17.060Z,82.27
2018-07-31T02:11:17.079Z,81.60
2018-07-31T02:12:17.104Z,82.27
2018-07-31T02:13:17.129Z,82.27
2018-07-31T02:14:17.142Z,81.50
2018-07-31T02:15:17.164Z,81.35
2018-07-31T02:16:17.187Z,81.16
2018-07-31T02:17:17.239Z,81.06
2018-07-31T02:18:17.231Z,80.87
2018-07-31T02:19:17.259Z,81.70
2018-07-31T02:20:17.278Z,80.96
2018-07-31T02:21:17.299Z,81.45
2018-07-31T02:22:17.325Z,81.35
2018-07-31T02:23:17.339Z,81.50
2018-07-31T02:24:17.363Z,80.96
2018-07-31T02:25:17.387Z,81.16
2018-07-31T02:26:17.407Z,81.98
2018-07-31T02:27:17.425Z,82.56
2018-07-31T02:28:17.474Z,82.65
2018-07-31T02:29:17.477Z,82.46
2018-07-31T02:30:17.492Z,81.98
2018-07-31T02:31:17.532Z,81.79
2018-07-31T02:32:17.535Z,81.98
2018-07-31T02:33:17.565Z,82.37
2018-07-31T02:34:17.577Z,82.65
2018-07-31T02:35:17.607Z,82.56
2018-07-31T02:36:17.627Z,81.54
2018-07-31T02:37:17.652Z,81.60
2018-07-31T02:38:17.671Z,81.83
2018-07-31T02:39:17.718Z,81.35
2018-07-31T02:40:17.726Z,81.54
2018-07-31T02:41:17.733Z,80.87
2018-07-31T02:42:17.759Z,80.19
2018-07-31T02:43:17.773Z,79.46
2018-07-31T02:44:17.796Z,80.00
2018-07-31T02:45:17.840Z,80.77
2018-07-31T02:46:17.861Z,81.60
2018-07-31T02:47:17.864Z,82.42
2018-07-31T02:48:17.894Z,82.52
2018-07-31T02:49:17.905Z,83.58
2018-07-31T02:50:17.941Z,83.58
2018-07-31T02:51:17.967Z,83.29
2018-07-31T02:52:17.970Z,83.42
2018-07-31T02:53:17.998Z,82.75
2018-07-31T02:54:18.017Z,82.56
2018-07-31T02:55:18.041Z,82.81
2018-07-31T02:56:18.058Z,83.29
2018-07-31T02:57:18.091Z,84.25
2018-07-31T02:58:18.125Z,85.27
2018-07-31T02:59:18.133Z,85.84
2018-07-31T03:00:18.148Z,86.80
2018-07-31T03:01:18.163Z,86.80
2018-07-31T03:02:18.196Z,87.09
2018-07-31T03:03:18.205Z,87.29
2018-07-31T03:04:18.230Z,87.34
2018-07-31T03:05:18.250Z,87.67
2018-07-31T03:06:18.298Z,87.72
2018-07-31T03:07:18.299Z,87.82
2018-07-31T03:08:18.397Z,87.67
2018-07-31T03:09:18.341Z,86.80
2018-07-31T03:10:18.364Z,87.09
2018-07-31T03:11:18.393Z,86.61
2018-07-31T03:12:18.403Z,86.52
2018-07-31T03:13:18.422Z,85.94
2018-07-31T03:14:18.442Z,85.46
2018-07-31T03:15:18.489Z,85.17
2018-07-31T03:16:18.491Z,85.55
2018-07-31T03:17:18.534Z,85.36
2018-07-31T03:18:18.532Z,85.46
2018-07-31T03:19:18.547Z,85.65
2018-07-31T03:20:18.584Z,84.83
2018-07-31T03:21:18.596Z,85.31
2018-07-31T03:22:18.611Z,84.25
2018-07-31T03:23:18.640Z,84.25
2018-07-31T03:24:18.656Z,83.67
2018-07-31T03:25:18.678Z,83.23
2018-07-31T03:26:18.702Z,83.52
2018-07-31T03:27:18.720Z,83.23
2018-07-31T03:28:18.819Z,82.56
2018-07-31T03:29:18.765Z,82.37
2018-07-31T03:30:18.801Z,81.25
2018-07-31T03:31:18.819Z,81.12
2018-07-31T03:32:18.838Z,81.06
2018-07-31T03:33:18.848Z,80.77
2018-07-31T03:34:18.875Z,80.68
2018-07-31T03:35:18.901Z,81.12
2018-07-31T03:36:18.923Z,80.68
2018-07-31T03:37:18.944Z,81.79
2018-07-31T03:38:18.957Z,81.88
2018-07-31T03:39:18.973Z,82.46
2018-07-31T03:40:19.003Z,83.19
2018-07-31T03:41:19.020Z,84.34
2018-07-31T03:42:19.061Z,84.83
2018-07-31T03:43:19.063Z,84.83
2018-07-31T03:44:19.088Z,84.78
2018-07-31T03:45:19.107Z,85.40
2018-07-31T03:46:19.133Z,85.75
2018-07-31T03:47:19.152Z,86.13
2018-07-31T03:48:19.175Z,86.52
2018-07-31T03:49:19.194Z,86.32
2018-07-31T03:50:19.215Z,86.42
2018-07-31T03:51:19.240Z,86.71
2018-07-31T03:52:19.262Z,86.95
2018-07-31T03:53:19.303Z,87.05
2018-07-31T03:54:19.301Z,87.92
2018-07-31T03:55:19.376Z,87.57
2018-07-31T03:56:19.383Z,86.99
2018-07-31T03:57:19.371Z,86.99
2018-07-31T03:58:19.395Z,86.80
2018-07-31T03:59:19.403Z,86.13
2018-07-31T04:00:19.451Z,85.65
2018-07-31T04:01:19.454Z,85.36
2018-07-31T04:02:19.481Z,86.32
2018-07-31T04:03:19.489Z,85.60
2018-07-31T04:04:19.512Z,87.29
2018-07-31T04:05:19.541Z,87.19
2018-07-31T04:06:19.567Z,86.80
2018-07-31T04:07:19.575Z,87.38
2018-07-31T04:08:19.598Z,87.09
2018-07-31T04:09:19.620Z,88.15
2018-07-31T04:10:19.645Z,88.10
2018-07-31T04:11:19.668Z,88.06
2018-07-31T04:12:19.690Z,88.10
2018-07-31T04:13:19.704Z,87.67
2018-07-31T04:14:19.734Z,87.48
2018-07-31T04:15:19.743Z,86.22
2018-07-31T04:16:19.768Z,85.50
2018-07-31T04:17:19.798Z,85.17
2018-07-31T04:18:19.816Z,85.40
2018-07-31T04:19:19.833Z,85.94
2018-07-31T04:20:19.854Z,86.99
2018-07-31T04:21:19.876Z,86.80
2018-07-31T04:22:19.908Z,85.21
2018-07-31T04:23:19.917Z,84.39
2018-07-31T04:24:19.947Z,82.56
2018-07-31T04:25:19.968Z,82.12
2018-07-31T04:26:19.996Z,81.93
2018-07-31T04:27:20.015Z,80.96
2018-07-31T04:28:20.026Z,80.77
2018-07-31T04:29:20.046Z,81.35
2018-07-31T04:30:20.069Z,81.45
2018-07-31T04:31:20.087Z,81.73
2018-07-31T04:32:20.116Z,82.31
2018-07-31T04:33:20.151Z,80.87
2018-07-31T04:34:20.157Z,80.96
2018-07-31T04:35:20.186Z,81.98
2018-07-31T04:36:20.199Z,82.85
2018-07-31T04:37:20.230Z,84.34
2018-07-31T04:38:20.243Z,85.11
2018-07-31T04:39:20.262Z,85.50
2018-07-31T04:40:20.286Z,85.40
2018-07-31T04:41:20.366Z,86.80
2018-07-31T04:42:20.361Z,86.18
2018-07-31T04:43:20.348Z,86.94
2018-07-31T04:44:20.372Z,86.65
2018-07-31T04:45:20.393Z,85.88
2018-07-31T04:46:20.415Z,85.31
2018-07-31T04:47:20.435Z,85.31
2018-07-31T04:48:20.460Z,85.60
2018-07-31T04:49:20.501Z,85.78
2018-07-31T04:50:20.539Z,85.40
2018-07-31T04:51:20.530Z,85.54
2018-07-31T04:52:20.544Z,85.25
2018-07-31T04:53:20.561Z,84.77
2018-07-31T04:54:20.594Z,83.28
2018-07-31T04:55:20.611Z,81.58
2018-07-31T04:56:20.628Z,81.48
2018-07-31T04:57:20.679Z,81.14
2018-07-31T04:58:20.678Z,80.91
2018-07-31T04:59:20.702Z,82.35
2018-07-31T05:00:20.719Z,81.68
2018-07-31T05:01:20.736Z,81.24
2018-07-31T05:02:20.776Z,79.64
2018-07-31T05:03:20.786Z,76.82
2018-07-31T05:04:20.813Z,74.04
2018-07-31T05:05:20.832Z,71.82
2018-07-31T05:06:20.853Z,68.21
2018-07-31T05:07:20.873Z,64.69
2018-07-31T05:08:20.905Z,62.68
2018-07-31T05:09:20.937Z,61.91
2018-07-31T05:10:20.947Z,62.46
2018-07-31T05:11:20.968Z,64.24
2018-07-31T05:12:20.996Z,66.34
2018-07-31T05:13:21.028Z,66.34
2018-07-31T05:14:21.045Z,66.14
2018-07-31T05:15:21.079Z,67.02
2018-07-31T05:16:21.100Z,65.79
2018-07-31T05:17:21.125Z,64.40
2018-07-31T05:18:21.221Z,62.78
2018-07-31T05:19:21.192Z,61.84
2018-07-31T05:20:21.209Z,60.22
2018-07-31T05:21:21.232Z,58.17
2018-07-31T05:22:21.262Z,56.52
2018-07-31T05:23:21.280Z,53.75
2018-07-31T05:24:21.323Z,51.34
2018-07-31T05:25:21.397Z,51.56
2018-07-31T05:26:21.375Z,53.19
2018-07-31T05:27:21.393Z,53.58
2018-07-31T05:28:21.423Z,53.02
2018-07-31T05:29:21.449Z,51.80
2018-07-31T05:30:21.482Z,50.39
2018-07-31T05:31:21.498Z,48.85
2018-07-31T05:32:21.528Z,48.02
2018-07-31T05:33:21.565Z,47.06
2018-07-31T05:34:21.585Z,46.33
2018-07-31T05:35:21.610Z,45.64
2018-07-31T05:36:21.659Z,45.25
2018-07-31T05:37:21.673Z,45.25
2018-07-31T05:38:21.695Z,45.39
2018-07-31T05:39:21.732Z,45.42
2018-07-31T05:40:21.757Z,47.77
2018-07-31T05:41:21.796Z,49.04
2018-07-31T05:42:21.828Z,47.72
2018-07-31T05:43:21.847Z,46.44
2018-07-31T05:44:21.872Z,44.55
2018-07-31T05:45:21.914Z,42.63
2018-07-31T05:46:21.937Z,41.86
2018-07-31T05:47:21.973Z,41.63
2018-07-31T05:48:21.994Z,43.18
2018-07-31T05:49:22.019Z,42.39
2018-07-31T05:50:22.070Z,42.51
2018-07-31T05:51:22.098Z,42.04
2018-07-31T05:52:22.118Z,42.38
2018-07-31T05:53:22.139Z,40.21
2018-07-31T05:54:22.167Z,41.35
2018-07-31T05:55:22.201Z,41.92
2018-07-31T05:56:22.230Z,42.02
2018-07-31T05:57:22.264Z,41.69
2018-07-31T05:58:22.309Z,40.21
2018-07-31T05:59:22.325Z,40.56
2018-07-31T06:00:22.363Z,41.27
2018-07-31T06:01:22.386Z,40.76
2018-07-31T06:02:22.423Z,41.90
2018-07-31T06:03:22.457Z,41.64
2018-07-31T06:04:22.477Z,40.98
2018-07-31T06:05:22.512Z,40.69
2018-07-31T06:06:22.535Z,39.56
2018-07-31T06:07:22.566Z,38.71
2018-07-31T06:08:22.598Z,37.59
2018-07-31T06:09:22.629Z,37.17
2018-07-31T06:10:22.659Z,36.58
2018-07-31T06:11:22.704Z,37.53
2018-07-31T06:12:22.737Z,38.76
2018-07-31T06:13:22.752Z,40.66
2018-07-31T06:14:22.790Z,42.27
2018-07-31T06:15:22.858Z,41.94
2018-07-31T06:16:22.847Z,40.31
2018-07-31T06:17:22.879Z,38.79
2018-07-31T06:18:22.912Z,38.79
2018-07-31T06:19:22.961Z,39.11
2018-07-31T06:20:22.988Z,39.90
2018-07-31T06:21:23.005Z,38.30
2018-07-31T06:22:23.045Z,37.73
2018-07-31T06:23:23.069Z,36.88
2018-07-31T06:24:23.097Z,36.02
2018-07-31T06:25:23.140Z,34.95
2018-07-31T06:26:23.166Z,34.74
2018-07-31T06:27:23.197Z,34.82
2018-07-31T06:28:23.224Z,35.79
2018-07-31T06:29:23.260Z,35.14
2018-07-31T06:30:23.293Z,35.68
2018-07-31T06:31:23.324Z,36.02
2018-07-31T06:32:23.364Z,34.36
2018-07-31T06:33:23.384Z,34.15
2018-07-31T06:34:23.415Z,36.15
2018-07-31T06:35:23.459Z,36.35
2018-07-31T06:36:23.478Z,37.53
2018-07-31T06:37:23.506Z,37.71
2018-07-31T06:38:23.547Z,39.32
2018-07-31T06:39:23.577Z,39.40
2018-07-31T06:40:23.662Z,39.64
2018-07-31T06:41:23.638Z,39.13
2018-07-31T06:42:23.666Z,39.13
2018-07-31T06:43:23.755Z,38.20
2018-07-31T06:44:23.736Z,35.89
2018-07-31T06:45:23.784Z,35.41
2018-07-31T06:46:23.796Z,34.28
2018-07-31T06:47:23.860Z,34.84
2018-07-31T06:48:23.861Z,35.12
2018-07-31T06:49:23.952Z,36.27
2018-07-31T06:50:23.938Z,36.04
2018-07-31T06:51:23.959Z,35.56
2018-07-31T06:52:24.000Z,36.22
2018-07-31T06:53:24.041Z,36.59
2018-07-31T06:54:24.058Z,37.28
2018-07-31T06:55:24.091Z,38.24
2018-07-31T06:56:24.133Z,38.21
2018-07-31T06:57:24.154Z,38.98
2018-07-31T06:58:24.186Z,39.27
2018-07-31T06:59:24.215Z,39.48
2018-07-31T07:00:24.262Z,36.94
2018-07-31T07:01:24.291Z,35.46
2018-07-31T07:02:24.338Z,36.11
2018-07-31T07:03:24.350Z,36.32
2018-07-31T07:04:24.388Z,35.20
2018-07-31T07:05:24.408Z,32.92
2018-07-31T07:06:24.461Z,32.70
2018-07-31T07:07:24.473Z,31.96
2018-07-31T07:08:24.519Z,32.39
2018-07-31T07:09:24.611Z,33.64
2018-07-31T07:10:24.577Z,34.28
2018-07-31T07:11:24.605Z,35.25
2018-07-31T07:12:24.643Z,35.35
2018-07-31T07:13:24.668Z,35.07
2018-07-31T07:14:24.698Z,35.23
2018-07-31T07:15:24.760Z,34.36
2018-07-31T07:16:24.772Z,31.59
2018-07-31T07:17:24.801Z,31.11
2018-07-31T07:18:24.831Z,30.35
2018-07-31T07:19:24.869Z,30.25
2018-07-31T07:20:24.910Z,31.11
2018-07-31T07:21:24.933Z,30.28
2018-07-31T07:22:24.968Z,28.63
2018-07-31T07:23:24.996Z,27.56
2018-07-31T07:24:25.032Z,27.56
2018-07-31T07:25:25.059Z,28.53
2018-07-31T07:26:25.091Z,30.46
2018-07-31T07:27:25.120Z,31.11
2018-07-31T07:28:25.157Z,30.39
2018-07-31T07:29:25.189Z,29.92
2018-07-31T07:30:25.220Z,31.31
2018-07-31T07:31:25.252Z,31.85
2018-07-31T07:32:25.291Z,32.83
2018-07-31T07:33:25.315Z,32.93
2018-07-31T07:34:25.370Z,32.24
2018-07-31T07:35:25.389Z,32.52
2018-07-31T07:36:25.422Z,32.78
2018-07-31T07:37:25.447Z,32.68
2018-07-31T07:38:25.506Z,33.56
2018-07-31T07:39:25.523Z,33.29
2018-07-31T07:40:25.547Z,33.08
2018-07-31T07:41:25.589Z,32.71
2018-07-31T07:42:25.612Z,31.56
2018-07-31T07:43:25.651Z,29.94
2018-07-31T07:44:25.693Z,30.12
2018-07-31T07:45:25.711Z,29.24
2018-07-31T07:46:25.746Z,30.39
2018-07-31T07:47:25.801Z,30.62
2018-07-31T07:48:25.859Z,29.91
2018-07-31T07:49:25.877Z,31.13
2018-07-31T07:50:25.898Z,32.07
2018-07-31T07:51:25.904Z,30.08
2018-07-31T07:52:25.940Z,29.83
2018-07-31T07:53:25.984Z,27.87
2018-07-31T07:54:26.025Z,29.38
2018-07-31T07:55:26.045Z,30.39
2018-07-31T07:56:26.063Z,29.99
2018-07-31T07:57:26.102Z,30.76
2018-07-31T07:58:26.144Z,31.74
2018-07-31T07:59:26.163Z,31.41
2018-07-31T08:00:26.192Z,31.07
2018-07-31T08:01:26.225Z,29.79
2018-07-31T08:02:26.262Z,30.46
2018-07-31T08:03:26.285Z,29.75
2018-07-31T08:04:26.324Z,26.90
2018-07-31T08:05:26.364Z,27.68
2018-07-31T08:06:26.384Z,27.48
2018-07-31T08:07:26.428Z,28.86
2018-07-31T08:08:26.450Z,28.35
2018-07-31T08:09:26.491Z,29.68
2018-07-31T08:10:26.531Z,30.00
2018-07-31T08:11:26.550Z,28.44
2018-07-31T08:12:26.574Z,27.40
2018-07-31T08:13:26.625Z,27.58
2018-07-31T08:14:26.648Z,28.06
2018-07-31T08:15:26.679Z,27.97
2018-07-31T08:16:26.731Z,26.82
2018-07-31T08:17:26.742Z,26.12
2018-07-31T08:18:26.773Z,27.77
2018-07-31T08:19:26.810Z,28.62
2018-07-31T08:20:26.887Z,28.45
2018-07-31T08:21:26.874Z,28.85
2018-07-31T08:22:26.905Z,28.23
2018-07-31T08:23:26.971Z,28.73
2018-07-31T08:24:26.971Z,28.15
2018-07-31T08:25:27.000Z,28.70
2018-07-31T08:26:27.027Z,28.61
2018-07-31T08:27:27.073Z,28.70
2018-07-31T08:28:27.100Z,28.79
2018-07-31T08:29:27.135Z,27.41
2018-07-31T08:30:27.164Z,26.81
2018-07-31T08:31:27.194Z,26.80
2018-07-31T08:32:27.220Z,28.25
2018-07-31T08:33:27.305Z,27.46
2018-07-31T08:34:27.349Z,27.58
2018-07-31T08:35:27.317Z,27.88
2018-07-31T08:36:27.359Z,28.28
2018-07-31T08:37:27.383Z,28.55
2018-07-31T08:38:27.413Z,27.42
2018-07-31T08:39:27.447Z,27.78
2018-07-31T08:40:27.471Z,28.55
2018-07-31T08:41:27.527Z,30.16
2018-07-31T08:42:27.568Z,31.12
2018-07-31T08:43:27.571Z,32.39
2018-07-31T08:44:27.592Z,31.62
2018-07-31T08:45:27.649Z,31.13
2018-07-31T08:46:27.655Z,30.10
2018-07-31T08:47:27.686Z,31.23
2018-07-31T08:48:27.759Z,32.57
2018-07-31T08:49:27.760Z,32.47
2018-07-31T08:50:27.775Z,33.03
2018-07-31T08:51:27.811Z,33.42
2018-07-31T08:52:27.837Z,32.93
2018-07-31T08:53:27.882Z,33.42
2018-07-31T08:54:27.898Z,33.69
2018-07-31T08:55:27.920Z,33.64
2018-07-31T08:56:27.954Z,33.53
2018-07-31T08:57:27.979Z,33.15
2018-07-31T08:58:28.011Z,33.64
2018-07-31T08:59:28.040Z,33.13
2018-07-31T09:00:28.073Z,33.25
2018-07-31T09:01:28.112Z,33.54
2018-07-31T09:02:28.132Z,34.39
2018-07-31T09:03:28.203Z,34.30
2018-07-31T09:04:28.192Z,35.27
2018-07-31T09:05:28.212Z,34.97
2018-07-31T09:06:28.247Z,34.89
2018-07-31T09:07:28.267Z,33.74
2018-07-31T09:08:28.464Z,33.74
2018-07-31T09:09:28.334Z,33.62
2018-07-31T09:10:28.364Z,34.30
2018-07-31T09:11:28.386Z,35.18
2018-07-31T09:12:28.414Z,34.67
2018-07-31T09:13:28.439Z,35.35
2018-07-31T09:14:28.484Z,35.56
2018-07-31T09:15:28.502Z,35.18
2018-07-31T09:16:28.535Z,34.89
2018-07-31T09:17:28.579Z,35.27
2018-07-31T09:18:28.586Z,35.58
2018-07-31T09:19:28.640Z,35.27
2018-07-31T09:20:28.640Z,35.46
2018-07-31T09:21:28.665Z,35.08
2018-07-31T09:22:28.691Z,35.18
2018-07-31T09:23:28.722Z,34.97
2018-07-31T09:24:28.761Z,35.18
2018-07-31T09:25:28.781Z,33.65
2018-07-31T09:26:28.816Z,33.46
2018-07-31T09:27:28.834Z,33.58
2018-07-31T09:28:28.892Z,33.85
2018-07-31T09:29:28.917Z,33.95
2018-07-31T09:30:29.037Z,34.53
2018-07-31T09:31:28.950Z,34.43
2018-07-31T09:32:28.980Z,34.44
2018-07-31T09:33:29.024Z,34.44
2018-07-31T09:34:29.050Z,33.31
2018-07-31T09:35:29.060Z,31.65
2018-07-31T09:36:29.149Z,30.37
2018-07-31T09:37:29.123Z,30.19
2018-07-31T09:38:29.146Z,29.61
2018-07-31T09:39:29.178Z,29.32
2018-07-31T09:40:29.202Z,29.41
2018-07-31T09:41:29.238Z,30.18
2018-07-31T09:42:29.275Z,31.53
2018-07-31T09:43:29.320Z,31.54
2018-07-31T09:44:29.318Z,32.19
2018-07-31T09:45:29.351Z,33.36
2018-07-31T09:46:29.380Z,32.87
2018-07-31T09:47:29.409Z,32.39
2018-07-31T09:48:29.494Z,32.77
2018-07-31T09:49:29.477Z,31.99
2018-07-31T09:50:29.494Z,31.90
2018-07-31T09:51:29.514Z,30.64
2018-07-31T09:52:29.552Z,30.71
2018-07-31T09:53:29.573Z,31.29
2018-07-31T09:54:29.610Z,30.32
2018-07-31T09:55:29.635Z,30.05
2018-07-31T09:56:29.661Z,30.60
2018-07-31T09:57:29.710Z,31.09
2018-07-31T09:58:29.727Z,31.09
2018-07-31T09:59:29.750Z,31.17
2018-07-31T10:00:29.800Z,31.19
2018-07-31T10:01:29.806Z,31.38
2018-07-31T10:02:29.828Z,31.98
2018-07-31T10:03:29.855Z,30.73
2018-07-31T10:04:29.891Z,30.34
2018-07-31T10:05:29.923Z,30.81
2018-07-31T10:06:29.945Z,31.40
2018-07-31T10:07:29.970Z,31.10
2018-07-31T10:08:30.005Z,30.16
2018-07-31T10:09:30.038Z,29.38
2018-07-31T10:10:30.072Z,29.39
2018-07-31T10:11:30.078Z,28.52
2018-07-31T10:12:30.114Z,28.03
2018-07-31T10:13:30.138Z,26.85
2018-07-31T10:14:30.171Z,26.75
2018-07-31T10:15:30.201Z,26.64
2018-07-31T10:16:30.220Z,26.33
2018-07-31T10:17:30.262Z,26.33
2018-07-31T10:18:30.286Z,26.21
2018-07-31T10:19:30.313Z,26.04
2018-07-31T10:20:30.342Z,26.31
2018-07-31T10:21:30.370Z,26.90
2018-07-31T10:22:30.396Z,27.49
2018-07-31T10:23:30.420Z,27.09
2018-07-31T10:24:30.470Z,26.80
2018-07-31T10:25:30.484Z,26.60
2018-07-31T10:26:30.513Z,26.42
2018-07-31T10:27:30.538Z,25.95
2018-07-31T10:28:30.573Z,25.96
2018-07-31T10:29:30.595Z,25.93
2018-07-31T10:30:30.636Z,26.73
2018-07-31T10:31:30.654Z,26.32
2018-07-31T10:32:30.685Z,27.31
2018-07-31T10:33:30.712Z,27.69
2018-07-31T10:34:30.742Z,27.40
2018-07-31T10:35:30.780Z,29.44
2018-07-31T10:36:30.800Z,29.82
2018-07-31T10:37:30.840Z,30.41
2018-07-31T10:38:30.853Z,30.81
2018-07-31T10:39:30.895Z,31.09
2018-07-31T10:40:30.907Z,31.40
2018-07-31T10:41:30.941Z,30.73
2018-07-31T10:42:30.988Z,30.23
2018-07-31T10:43:31.008Z,30.33
2018-07-31T10:44:31.028Z,30.15
2018-07-31T10:45:31.061Z,29.36
2018-07-31T10:46:31.081Z,29.85
2018-07-31T10:47:31.113Z,28.67
2018-07-31T10:48:31.136Z,28.96
2018-07-31T10:49:31.174Z,29.85
2018-07-31T10:50:31.227Z,28.78
2018-07-31T10:51:31.237Z,27.91
2018-07-31T10:52:31.258Z,28.20
2018-07-31T10:53:31.290Z,27.89
2018-07-31T10:54:31.310Z,27.91
2018-07-31T10:55:31.335Z,27.32
2018-07-31T10:56:31.373Z,27.62
2018-07-31T10:57:31.404Z,27.62
2018-07-31T10:58:31.495Z,27.02
2018-07-31T10:59:31.477Z,27.62
2018-07-31T11:00:31.483Z,27.91
2018-07-31T11:01:31.508Z,27.80
2018-07-31T11:02:31.545Z,27.50
2018-07-31T11:03:31.568Z,27.21
2018-07-31T11:04:31.602Z,27.50
2018-07-31T11:05:31.624Z,28.11
2018-07-31T11:06:31.726Z,27.72
2018-07-31T11:07:31.696Z,27.50
2018-07-31T11:08:31.711Z,28.09
2018-07-31T11:09:31.762Z,27.89
2018-07-31T11:10:31.768Z,28.38
2018-07-31T11:11:31.796Z,27.70
2018-07-31T11:12:31.823Z,26.84
2018-07-31T11:13:31.857Z,26.62
2018-07-31T11:14:31.895Z,27.12
2018-07-31T11:15:31.915Z,26.44
2018-07-31T11:16:31.947Z,26.15
2018-07-31T11:17:31.980Z,26.07
2018-07-31T11:18:31.999Z,26.37
2018-07-31T11:19:32.033Z,26.07
2018-07-31T11:20:32.064Z,25.96
2018-07-31T11:21:32.094Z,26.06
2018-07-31T11:22:32.114Z,25.97
2018-07-31T11:23:32.161Z,25.39
2018-07-31T11:24:32.195Z,25.86
2018-07-31T11:25:32.203Z,26.55
2018-07-31T11:26:32.227Z,26.25
2018-07-31T11:27:32.305Z,26.26
2018-07-31T11:28:32.305Z,26.55
2018-07-31T11:29:32.315Z,26.74
2018-07-31T11:30:32.360Z,26.84
2018-07-31T11:31:32.374Z,27.14
2018-07-31T11:32:32.405Z,26.93
2018-07-31T11:33:32.443Z,26.82
2018-07-31T11:34:32.466Z,27.22
2018-07-31T11:35:32.491Z,26.82
2018-07-31T11:36:32.523Z,27.77
2018-07-31T11:37:32.558Z,27.79
2018-07-31T11:38:32.600Z,28.74
2018-07-31T11:39:32.639Z,29.52
2018-07-31T11:40:32.650Z,29.93
2018-07-31T11:41:32.678Z,28.76
2018-07-31T11:42:32.693Z,28.47
2018-07-31T11:43:32.733Z,28.76
2018-07-31T11:44:32.753Z,28.78
2018-07-31T11:45:32.784Z,28.08
2018-07-31T11:46:32.814Z,28.00
2018-07-31T11:47:32.845Z,27.98
2018-07-31T11:48:32.870Z,28.78
2018-07-31T11:49:32.902Z,27.69
2018-07-31T11:50:32.929Z,28.28
2018-07-31T11:51:32.957Z,27.32
2018-07-31T11:52:32.978Z,26.51
2018-07-31T11:53:33.014Z,27.87
2018-07-31T11:54:33.046Z,27.98
2018-07-31T11:55:33.068Z,27.89
2018-07-31T11:56:33.102Z,28.25
2018-07-31T11:57:33.124Z,27.77
2018-07-31T11:58:33.166Z,28.17
2018-07-31T11:59:33.184Z,28.18
2018-07-31T12:00:33.224Z,27.39
2018-07-31T12:01:33.241Z,27.97
2018-07-31T12:02:33.267Z,28.35
2018-07-31T12:03:33.291Z,27.96
2018-07-31T12:04:33.374Z,28.05
2018-07-31T12:05:33.368Z,28.72
2018-07-31T12:06:33.384Z,28.72
2018-07-31T12:07:33.406Z,29.32
2018-07-31T12:08:33.443Z,28.64
2018-07-31T12:09:33.485Z,28.75
2018-07-31T12:10:33.497Z,28.08
2018-07-31T12:11:33.567Z,26.90
2018-07-31T12:12:33.552Z,26.92
2018-07-31T12:13:33.583Z,26.25
2018-07-31T12:14:33.627Z,26.33
2018-07-31T12:15:33.665Z,25.92
2018-07-31T12:16:33.673Z,25.73
2018-07-31T12:17:33.704Z,26.03
2018-07-31T12:18:33.734Z,26.02
2018-07-31T12:19:33.755Z,26.51
2018-07-31T12:20:33.790Z,27.59
2018-07-31T12:21:33.828Z,27.49
2018-07-31T12:22:33.847Z,27.18
2018-07-31T12:23:33.861Z,26.61
2018-07-31T12:24:33.904Z,26.71
2018-07-31T12:25:33.919Z,26.70
2018-07-31T12:26:33.951Z,26.70
2018-07-31T12:27:33.979Z,26.70
2018-07-31T12:28:34.016Z,27.66
2018-07-31T12:29:34.036Z,27.94
2018-07-31T12:30:34.075Z,28.16
2018-07-31T12:31:34.098Z,28.16
2018-07-31T12:32:34.117Z,27.79
2018-07-31T12:33:34.147Z,26.81
2018-07-31T12:34:34.190Z,26.81
2018-07-31T12:35:34.213Z,27.77
2018-07-31T12:36:34.252Z,27.86
2018-07-31T12:37:34.272Z,28.74
2018-07-31T12:38:34.404Z,28.44
2018-07-31T12:39:34.321Z,27.39
2018-07-31T12:40:34.347Z,26.91
2018-07-31T12:41:34.390Z,27.67
2018-07-31T12:42:34.414Z,27.97
2018-07-31T12:43:34.429Z,27.39
2018-07-31T12:44:34.464Z,27.29
2018-07-31T12:45:34.512Z,27.50
2018-07-31T12:46:34.516Z,27.19
2018-07-31T12:47:34.562Z,27.67
2018-07-31T12:48:34.630Z,28.08
2018-07-31T12:49:34.606Z,27.39
2018-07-31T12:50:34.655Z,27.89
2018-07-31T12:51:34.665Z,27.77
2018-07-31T12:52:34.700Z,27.97